sensor_id;sensor_type;location;lat;lon;timestamp;P1;durP1;ratioP1;P2;durP2;ratioP2
75064;SDS011;63646;49.110;9.140;2023-02-11T05:02:36;6.05;;;4.80;;
75064;SDS011;63646;49.110;9.140;2023-02-11T05:05:02;6.28;;;4.70;;
75064;SDS011;63646;49.110;9.140;2023-02-11T05:07:29;5.85;;;4.82;;
75064;SDS011;63646;49.110;9.140;2023-02-11T05:09:54;5.15;;;4.70;;
75064;SDS011;63646;49.110;9.140;2023-02-11T05:12:19;5.47;;;4.68;;
75064;SDS011;63646;49.110;9.140;2023-02-11T05:14:45;6.50;;;5.00;;
75064;SDS011;63646;49.110;9.140;2023-02-11T05:17:11;5.50;;;4.90;;
75064;SDS011;63646;49.110;9.140;2023-02-11T05:19:37;5.47;;;4.53;;
75064;SDS011;63646;49.110;9.140;2023-02-11T05:22:02;6.25;;;5.03;;
75064;SDS011;63646;49.110;9.140;2023-02-11T05:24:28;6.03;;;4.95;;
75064;SDS011;63646;49.110;9.140;2023-02-11T05:26:55;5.93;;;5.20;;
75064;SDS011;63646;49.110;9.140;2023-02-11T05:29:21;6.13;;;4.90;;
75064;SDS011;63646;49.110;9.140;2023-02-11T05:31:46;5.85;;;5.05;;
75064;SDS011;63646;49.110;9.140;2023-02-11T05:34:12;5.95;;;4.95;;
75064;SDS011;63646;49.110;9.140;2023-02-11T05:36:37;6.45;;;5.15;;
75064;SDS011;63646;49.110;9.140;2023-02-11T05:39:03;5.20;;;4.70;;
75064;SDS011;63646;49.110;9.140;2023-02-11T05:41:28;5.35;;;4.85;;
75064;SDS011;63646;49.110;9.140;2023-02-11T05:43:53;6.45;;;5.25;;
75064;SDS011;63646;49.110;9.140;2023-02-11T05:46:19;5.20;;;4.70;;
75064;SDS011;63646;49.110;9.140;2023-02-11T05:48:44;6.03;;;5.10;;
75064;SDS011;63646;49.110;9.140;2023-02-11T05:51:10;5.13;;;4.60;;
75064;SDS011;63646;49.110;9.140;2023-02-11T05:53:36;5.85;;;4.88;;
75064;SDS011;63646;49.110;9.140;2023-02-11T05:56:01;5.15;;;4.65;;
75064;SDS011;63646;49.110;9.140;2023-02-11T05:58:27;5.05;;;4.55;;
75064;SDS011;63646;49.110;9.140;2023-02-11T06:00:52;5.18;;;4.68;;
75064;SDS011;63646;49.110;9.140;2023-02-11T06:03:18;5.35;;;4.85;;
75064;SDS011;63646;49.110;9.140;2023-02-11T06:05:44;5.75;;;4.53;;
75064;SDS011;63646;49.110;9.140;2023-02-11T06:08:10;5.03;;;4.53;;
75064;SDS011;63646;49.110;9.140;2023-02-11T06:10:35;4.85;;;4.35;;
75064;SDS011;63646;49.110;9.140;2023-02-11T06:13:01;5.35;;;4.75;;
75064;SDS011;63646;49.110;9.140;2023-02-11T06:15:26;6.18;;;4.78;;
75064;SDS011;63646;49.110;9.140;2023-02-11T06:17:52;4.85;;;4.45;;
75064;SDS011;63646;49.110;9.140;2023-02-11T06:20:17;6.03;;;4.50;;
75064;SDS011;63646;49.110;9.140;2023-02-11T06:22:43;5.05;;;4.55;;
75064;SDS011;63646;49.110;9.140;2023-02-11T06:25:09;5.63;;;4.90;;
75064;SDS011;63646;49.110;9.140;2023-02-11T06:27:36;5.15;;;4.60;;
75064;SDS011;63646;49.110;9.140;2023-02-11T06:30:02;5.28;;;4.63;;
75064;SDS011;63646;49.110;9.140;2023-02-11T06:32:29;5.38;;;4.70;;
75064;SDS011;63646;49.110;9.140;2023-02-11T06:34:54;5.13;;;4.63;;
75064;SDS011;63646;49.110;9.140;2023-02-11T06:37:20;5.20;;;4.70;;
75064;SDS011;63646;49.110;9.140;2023-02-11T06:39:45;5.50;;;4.93;;
75064;SDS011;63646;49.110;9.140;2023-02-11T06:42:11;5.18;;;4.68;;
75064;SDS011;63646;49.110;9.140;2023-02-11T06:44:36;5.07;;;4.53;;
75064;SDS011;63646;49.110;9.140;2023-02-11T06:47:02;5.22;;;4.72;;
75064;SDS011;63646;49.110;9.140;2023-02-11T06:49:28;4.97;;;4.47;;
75064;SDS011;63646;49.110;9.140;2023-02-11T06:51:54;5.22;;;4.72;;
75064;SDS011;63646;49.110;9.140;2023-02-11T06:54:19;4.95;;;4.22;;
75064;SDS011;63646;49.110;9.140;2023-02-11T06:56:45;4.85;;;4.43;;
75064;SDS011;63646;49.110;9.140;2023-02-11T06:59:14;5.22;;;4.72;;
75064;SDS011;63646;49.110;9.140;2023-02-11T07:01:40;4.75;;;4.25;;
75064;SDS011;63646;49.110;9.140;2023-02-11T07:04:05;4.80;;;4.30;;
75064;SDS011;63646;49.110;9.140;2023-02-11T07:06:32;5.28;;;4.78;;
75064;SDS011;63646;49.110;9.140;2023-02-11T07:08:58;4.82;;;4.32;;
75064;SDS011;63646;49.110;9.140;2023-02-11T07:11:25;4.70;;;4.20;;
75064;SDS011;63646;49.110;9.140;2023-02-11T07:13:52;5.10;;;4.60;;
75064;SDS011;63646;49.110;9.140;2023-02-11T07:16:20;4.95;;;4.45;;
75064;SDS011;63646;49.110;9.140;2023-02-11T07:18:46;5.28;;;4.78;;
75064;SDS011;63646;49.110;9.140;2023-02-11T07:21:13;5.28;;;4.70;;
75064;SDS011;63646;49.110;9.140;2023-02-11T07:23:40;6.50;;;4.38;;
75064;SDS011;63646;49.110;9.140;2023-02-11T07:26:07;5.10;;;4.60;;
75064;SDS011;63646;49.110;9.140;2023-02-11T07:28:37;5.00;;;4.38;;
75064;SDS011;63646;49.110;9.140;2023-02-11T07:31:05;4.43;;;4.03;;
75064;SDS011;63646;49.110;9.140;2023-02-11T07:33:42;4.80;;;4.30;;
75064;SDS011;63646;49.110;9.140;2023-02-11T07:36:10;4.63;;;4.22;;
75064;SDS011;63646;49.110;9.140;2023-02-11T07:38:38;4.90;;;4.20;;
75064;SDS011;63646;49.110;9.140;2023-02-11T07:41:06;4.60;;;4.20;;
75064;SDS011;63646;49.110;9.140;2023-02-11T07:43:33;4.47;;;4.07;;
75064;SDS011;63646;49.110;9.140;2023-02-11T07:46:03;4.70;;;4.20;;
75064;SDS011;63646;49.110;9.140;2023-02-11T07:48:30;4.57;;;4.05;;
75064;SDS011;63646;49.110;9.140;2023-02-11T07:51:03;4.38;;;3.97;;
75064;SDS011;63646;49.110;9.140;2023-02-11T07:53:33;4.88;;;4.30;;
75064;SDS011;63646;49.110;9.140;2023-02-11T07:55:59;5.32;;;4.40;;
75064;SDS011;63646;49.110;9.140;2023-02-11T07:58:24;5.53;;;4.28;;
75064;SDS011;63646;49.110;9.140;2023-02-11T08:00:49;4.60;;;4.13;;
75064;SDS011;63646;49.110;9.140;2023-02-11T08:03:15;5.07;;;4.47;;
75064;SDS011;63646;49.110;9.140;2023-02-11T08:05:40;5.18;;;4.40;;
75064;SDS011;63646;49.110;9.140;2023-02-11T08:08:07;4.57;;;3.95;;
75064;SDS011;63646;49.110;9.140;2023-02-11T08:10:33;5.40;;;4.25;;
75064;SDS011;63646;49.110;9.140;2023-02-11T08:12:58;4.90;;;4.40;;
75064;SDS011;63646;49.110;9.140;2023-02-11T08:15:24;4.38;;;3.97;;
75064;SDS011;63646;49.110;9.140;2023-02-11T08:17:49;6.30;;;3.88;;
75064;SDS011;63646;49.110;9.140;2023-02-11T08:20:15;4.57;;;4.18;;
75064;SDS011;63646;49.110;9.140;2023-02-11T08:22:41;4.65;;;4.15;;
75064;SDS011;63646;49.110;9.140;2023-02-11T08:25:07;4.85;;;4.40;;
75064;SDS011;63646;49.110;9.140;2023-02-11T08:27:32;5.40;;;4.00;;
75064;SDS011;63646;49.110;9.140;2023-02-11T08:29:58;4.38;;;3.97;;
75064;SDS011;63646;49.110;9.140;2023-02-11T08:32:24;4.72;;;4.22;;
75064;SDS011;63646;49.110;9.140;2023-02-11T08:34:51;4.53;;;3.97;;
75064;SDS011;63646;49.110;9.140;2023-02-11T08:37:17;4.65;;;4.10;;
75064;SDS011;63646;49.110;9.140;2023-02-11T08:39:42;4.88;;;4.35;;
75064;SDS011;63646;49.110;9.140;2023-02-11T08:42:08;4.68;;;4.28;;
75064;SDS011;63646;49.110;9.140;2023-02-11T08:44:34;5.30;;;4.20;;
75064;SDS011;63646;49.110;9.140;2023-02-11T08:46:59;4.68;;;4.10;;
75064;SDS011;63646;49.110;9.140;2023-02-11T08:49:25;4.85;;;4.32;;
75064;SDS011;63646;49.110;9.140;2023-02-11T08:51:51;4.97;;;3.88;;
75064;SDS011;63646;49.110;9.140;2023-02-11T08:54:38;5.45;;;4.18;;
75064;SDS011;63646;49.110;9.140;2023-02-11T08:57:03;4.63;;;4.10;;
75064;SDS011;63646;49.110;9.140;2023-02-11T08:59:29;4.70;;;4.15;;
75064;SDS011;63646;49.110;9.140;2023-02-11T09:01:55;4.28;;;3.80;;
75064;SDS011;63646;49.110;9.140;2023-02-11T09:04:21;8.70;;;4.32;;
75064;SDS011;63646;49.110;9.140;2023-02-11T09:06:46;6.13;;;3.90;;
75064;SDS011;63646;49.110;9.140;2023-02-11T09:09:12;4.45;;;4.00;;
75064;SDS011;63646;49.110;9.140;2023-02-11T09:11:39;5.18;;;3.90;;
75064;SDS011;63646;49.110;9.140;2023-02-11T09:14:06;5.78;;;4.18;;
75064;SDS011;63646;49.110;9.140;2023-02-11T09:16:40;5.32;;;4.10;;
75064;SDS011;63646;49.110;9.140;2023-02-11T09:19:08;4.90;;;4.00;;
75064;SDS011;63646;49.110;9.140;2023-02-11T09:21:33;6.70;;;4.07;;
75064;SDS011;63646;49.110;9.140;2023-02-11T09:23:59;7.72;;;5.03;;
75064;SDS011;63646;49.110;9.140;2023-02-11T09:26:29;4.47;;;4.00;;
75064;SDS011;63646;49.110;9.140;2023-02-11T09:28:56;5.07;;;4.50;;
75064;SDS011;63646;49.110;9.140;2023-02-11T09:33:50;5.47;;;3.70;;
75064;SDS011;63646;49.110;9.140;2023-02-11T09:36:19;4.50;;;3.85;;
75064;SDS011;63646;49.110;9.140;2023-02-11T09:38:46;4.18;;;3.78;;
75064;SDS011;63646;49.110;9.140;2023-02-11T09:41:28;5.05;;;3.88;;
75064;SDS011;63646;49.110;9.140;2023-02-11T09:44:05;12.65;;;9.75;;
75064;SDS011;63646;49.110;9.140;2023-02-11T09:46:36;13.18;;;9.85;;
75064;SDS011;63646;49.110;9.140;2023-02-11T09:49:06;16.88;;;11.05;;
75064;SDS011;63646;49.110;9.140;2023-02-11T09:54:36;17.73;;;11.18;;
75064;SDS011;63646;49.110;9.140;2023-02-11T09:57:09;14.98;;;10.32;;
75064;SDS011;63646;49.110;9.140;2023-02-11T09:59:34;15.25;;;10.90;;
75064;SDS011;63646;49.110;9.140;2023-02-11T10:02:06;14.95;;;10.18;;
75064;SDS011;63646;49.110;9.140;2023-02-11T10:12:35;11.07;;;6.85;;
75064;SDS011;63646;49.110;9.140;2023-02-11T10:18:09;12.88;;;5.88;;
75064;SDS011;63646;49.110;9.140;2023-02-11T10:23:43;10.52;;;6.53;;
75064;SDS011;63646;49.110;9.140;2023-02-11T10:26:14;11.65;;;6.97;;
75064;SDS011;63646;49.110;9.140;2023-02-11T10:28:41;9.88;;;6.70;;
75064;SDS011;63646;49.110;9.140;2023-02-11T10:31:23;10.38;;;6.82;;
75064;SDS011;63646;49.110;9.140;2023-02-11T10:36:27;12.00;;;7.40;;
75064;SDS011;63646;49.110;9.140;2023-02-11T10:39:11;12.10;;;7.10;;
75064;SDS011;63646;49.110;9.140;2023-02-11T10:41:38;10.70;;;6.05;;
75064;SDS011;63646;49.110;9.140;2023-02-11T10:44:15;7.30;;;4.90;;
75064;SDS011;63646;49.110;9.140;2023-02-11T10:46:52;8.30;;;4.90;;
75064;SDS011;63646;49.110;9.140;2023-02-11T10:49:38;8.48;;;4.30;;
75064;SDS011;63646;49.110;9.140;2023-02-11T11:03:26;11.07;;;7.03;;
75064;SDS011;63646;49.110;9.140;2023-02-11T11:06:08;12.98;;;7.72;;
75064;SDS011;63646;49.110;9.140;2023-02-11T11:11:06;11.35;;;6.85;;
75064;SDS011;63646;49.110;9.140;2023-02-11T11:13:37;12.50;;;7.20;;
75064;SDS011;63646;49.110;9.140;2023-02-11T11:19:13;9.98;;;4.85;;
75064;SDS011;63646;49.110;9.140;2023-02-11T11:21:49;9.20;;;4.97;;
75064;SDS011;63646;49.110;9.140;2023-02-11T11:24:26;10.32;;;5.03;;
75064;SDS011;63646;49.110;9.140;2023-02-11T11:26:58;6.93;;;4.78;;
75064;SDS011;63646;49.110;9.140;2023-02-11T11:29:28;9.00;;;4.78;;
75064;SDS011;63646;49.110;9.140;2023-02-11T11:31:59;6.32;;;4.63;;
75064;SDS011;63646;49.110;9.140;2023-02-11T11:36:59;6.28;;;4.68;;
75064;SDS011;63646;49.110;9.140;2023-02-11T11:39:34;6.63;;;4.10;;
75064;SDS011;63646;49.110;9.140;2023-02-11T11:42:03;6.32;;;4.25;;
75064;SDS011;63646;49.110;9.140;2023-02-11T11:44:45;6.40;;;3.78;;
75064;SDS011;63646;49.110;9.140;2023-02-11T11:47:23;5.45;;;4.07;;
75064;SDS011;63646;49.110;9.140;2023-02-11T11:53:09;5.13;;;3.45;;
75064;SDS011;63646;49.110;9.140;2023-02-11T11:55:51;5.88;;;4.32;;
75064;SDS011;63646;49.110;9.140;2023-02-11T11:58:22;5.82;;;3.85;;
75064;SDS011;63646;49.110;9.140;2023-02-11T12:14:33;11.47;;;7.83;;
75064;SDS011;63646;49.110;9.140;2023-02-11T12:24:55;11.98;;;7.10;;
75064;SDS011;63646;49.110;9.140;2023-02-11T12:30:21;9.52;;;6.65;;
75064;SDS011;63646;49.110;9.140;2023-02-11T12:41:04;4.68;;;3.67;;
75064;SDS011;63646;49.110;9.140;2023-02-11T12:43:41;5.88;;;3.83;;
75064;SDS011;63646;49.110;9.140;2023-02-11T12:52:28;4.65;;;3.40;;
75064;SDS011;63646;49.110;9.140;2023-02-11T13:02:55;3.90;;;3.00;;
75064;SDS011;63646;49.110;9.140;2023-02-11T13:05:25;4.05;;;3.03;;
75064;SDS011;63646;49.110;9.140;2023-02-11T13:07:56;6.82;;;3.00;;
75064;SDS011;63646;49.110;9.140;2023-02-11T13:10:32;4.95;;;2.92;;
75064;SDS011;63646;49.110;9.140;2023-02-11T13:13:01;3.85;;;2.90;;
75064;SDS011;63646;49.110;9.140;2023-02-11T13:15:42;4.30;;;3.08;;
75064;SDS011;63646;49.110;9.140;2023-02-11T13:18:21;5.78;;;3.25;;
75064;SDS011;63646;49.110;9.140;2023-02-11T13:23:49;5.32;;;3.33;;
75064;SDS011;63646;49.110;9.140;2023-02-11T13:31:55;11.88;;;3.33;;
75064;SDS011;63646;49.110;9.140;2023-02-11T13:37:05;7.10;;;3.03;;
75064;SDS011;63646;49.110;9.140;2023-02-11T13:39:41;5.75;;;3.15;;
75064;SDS011;63646;49.110;9.140;2023-02-11T13:42:11;6.97;;;3.22;;
75064;SDS011;63646;49.110;9.140;2023-02-11T13:44:39;11.98;;;3.33;;
75064;SDS011;63646;49.110;9.140;2023-02-11T13:47:05;7.28;;;3.22;;
75064;SDS011;63646;49.110;9.140;2023-02-11T13:49:36;6.32;;;3.40;;
75064;SDS011;63646;49.110;9.140;2023-02-11T13:55:13;7.47;;;2.95;;
75064;SDS011;63646;49.110;9.140;2023-02-11T13:57:45;4.78;;;3.17;;
75064;SDS011;63646;49.110;9.140;2023-02-11T14:06:40;8.07;;;3.80;;
75064;SDS011;63646;49.110;9.140;2023-02-11T14:27:24;4.72;;;2.80;;
75064;SDS011;63646;49.110;9.140;2023-02-11T14:32:45;3.85;;;2.88;;
75064;SDS011;63646;49.110;9.140;2023-02-11T14:36:00;6.07;;;3.28;;
75064;SDS011;63646;49.110;9.140;2023-02-11T14:43:49;7.07;;;3.33;;
75064;SDS011;63646;49.110;9.140;2023-02-11T14:46:18;6.55;;;3.47;;
75064;SDS011;63646;49.110;9.140;2023-02-11T14:48:49;6.10;;;2.95;;
75064;SDS011;63646;49.110;9.140;2023-02-11T14:51:23;5.38;;;2.80;;
75064;SDS011;63646;49.110;9.140;2023-02-11T14:53:56;4.00;;;2.70;;
75064;SDS011;63646;49.110;9.140;2023-02-11T14:56:26;7.28;;;2.92;;
75064;SDS011;63646;49.110;9.140;2023-02-11T14:58:58;5.07;;;3.17;;
75064;SDS011;63646;49.110;9.140;2023-02-11T15:04:02;5.15;;;2.78;;
75064;SDS011;63646;49.110;9.140;2023-02-11T15:06:31;6.40;;;3.03;;
75064;SDS011;63646;49.110;9.140;2023-02-11T15:09:41;4.65;;;2.85;;
75064;SDS011;63646;49.110;9.140;2023-02-11T15:11:51;5.65;;;2.90;;
75064;SDS011;63646;49.110;9.140;2023-02-11T15:16:53;4.80;;;2.70;;
75064;SDS011;63646;49.110;9.140;2023-02-11T15:21:54;6.55;;;2.83;;
75064;SDS011;63646;49.110;9.140;2023-02-11T15:26:59;4.22;;;2.83;;
75064;SDS011;63646;49.110;9.140;2023-02-11T15:29:41;5.70;;;2.67;;
75064;SDS011;63646;49.110;9.140;2023-02-11T15:34:34;4.97;;;2.90;;
75064;SDS011;63646;49.110;9.140;2023-02-11T15:37:01;5.68;;;3.13;;
75064;SDS011;63646;49.110;9.140;2023-02-11T15:44:45;4.65;;;2.83;;
75064;SDS011;63646;49.110;9.140;2023-02-11T15:47:17;5.28;;;2.92;;
75064;SDS011;63646;49.110;9.140;2023-02-11T15:49:46;4.53;;;2.80;;
75064;SDS011;63646;49.110;9.140;2023-02-11T15:52:13;5.25;;;3.22;;
75064;SDS011;63646;49.110;9.140;2023-02-11T15:54:46;5.25;;;3.13;;
75064;SDS011;63646;49.110;9.140;2023-02-11T15:57:15;5.65;;;2.90;;
75064;SDS011;63646;49.110;9.140;2023-02-11T15:59:44;4.50;;;3.38;;
75064;SDS011;63646;49.110;9.140;2023-02-11T16:04:48;6.13;;;3.38;;
75064;SDS011;63646;49.110;9.140;2023-02-11T16:10:02;4.88;;;2.80;;
75064;SDS011;63646;49.110;9.140;2023-02-11T16:15:45;4.63;;;2.85;;
75064;SDS011;63646;49.110;9.140;2023-02-11T16:20:45;4.05;;;2.80;;
75064;SDS011;63646;49.110;9.140;2023-02-11T16:23:13;3.58;;;2.85;;
75064;SDS011;63646;49.110;9.140;2023-02-11T16:25:45;5.80;;;2.92;;
75064;SDS011;63646;49.110;9.140;2023-02-11T16:28:13;4.97;;;3.00;;
75064;SDS011;63646;49.110;9.140;2023-02-11T16:30:40;4.60;;;3.28;;
75064;SDS011;63646;49.110;9.140;2023-02-11T16:33:08;4.22;;;2.97;;
75064;SDS011;63646;49.110;9.140;2023-02-11T16:35:35;5.25;;;2.90;;
75064;SDS011;63646;49.110;9.140;2023-02-11T16:38:01;3.90;;;2.47;;
75064;SDS011;63646;49.110;9.140;2023-02-11T16:40:27;4.22;;;3.00;;
75064;SDS011;63646;49.110;9.140;2023-02-11T16:42:52;5.20;;;3.00;;
75064;SDS011;63646;49.110;9.140;2023-02-11T16:45:21;4.70;;;2.95;;
75064;SDS011;63646;49.110;9.140;2023-02-11T16:47:46;5.80;;;2.67;;
75064;SDS011;63646;49.110;9.140;2023-02-11T16:50:18;3.63;;;2.80;;
75064;SDS011;63646;49.110;9.140;2023-02-11T16:52:45;3.33;;;2.90;;
75064;SDS011;63646;49.110;9.140;2023-02-11T16:55:11;4.82;;;2.72;;
75064;SDS011;63646;49.110;9.140;2023-02-11T16:57:37;3.33;;;2.70;;
75064;SDS011;63646;49.110;9.140;2023-02-11T17:00:03;3.80;;;2.60;;
75064;SDS011;63646;49.110;9.140;2023-02-11T17:02:32;4.35;;;3.08;;
75064;SDS011;63646;49.110;9.140;2023-02-11T17:05:05;3.10;;;2.80;;
75064;SDS011;63646;49.110;9.140;2023-02-11T17:07:35;3.53;;;2.67;;
75064;SDS011;63646;49.110;9.140;2023-02-11T17:10:05;3.47;;;2.75;;
75064;SDS011;63646;49.110;9.140;2023-02-11T17:12:37;4.50;;;2.90;;
75064;SDS011;63646;49.110;9.140;2023-02-11T17:15:03;3.17;;;2.40;;
75064;SDS011;63646;49.110;9.140;2023-02-11T17:17:28;3.80;;;2.92;;
75064;SDS011;63646;49.110;9.140;2023-02-11T17:19:57;3.35;;;2.55;;
75064;SDS011;63646;49.110;9.140;2023-02-11T17:22:22;4.25;;;2.90;;
75064;SDS011;63646;49.110;9.140;2023-02-11T17:24:47;4.05;;;2.55;;
75064;SDS011;63646;49.110;9.140;2023-02-11T17:27:13;4.25;;;2.55;;
75064;SDS011;63646;49.110;9.140;2023-02-11T17:29:39;3.10;;;2.42;;
75064;SDS011;63646;49.110;9.140;2023-02-11T17:32:04;9.77;;;7.38;;
75064;SDS011;63646;49.110;9.140;2023-02-11T17:34:30;6.18;;;3.63;;
75064;SDS011;63646;49.110;9.140;2023-02-11T17:36:56;3.80;;;2.70;;
75064;SDS011;63646;49.110;9.140;2023-02-11T17:39:24;3.60;;;2.65;;
75064;SDS011;63646;49.110;9.140;2023-02-11T17:41:52;4.68;;;3.05;;
75064;SDS011;63646;49.110;9.140;2023-02-11T17:44:17;4.57;;;3.05;;
75064;SDS011;63646;49.110;9.140;2023-02-11T17:46:43;4.35;;;3.15;;
75064;SDS011;63646;49.110;9.140;2023-02-11T17:49:09;4.38;;;2.97;;
75064;SDS011;63646;49.110;9.140;2023-02-11T17:51:36;3.28;;;2.67;;
75064;SDS011;63646;49.110;9.140;2023-02-11T17:54:10;4.57;;;3.03;;
75064;SDS011;63646;49.110;9.140;2023-02-11T17:56:37;4.93;;;2.90;;
75064;SDS011;63646;49.110;9.140;2023-02-11T17:59:03;3.15;;;2.80;;
75064;SDS011;63646;49.110;9.140;2023-02-11T18:01:30;3.80;;;2.83;;
75064;SDS011;63646;49.110;9.140;2023-02-11T18:03:56;4.13;;;2.58;;
75064;SDS011;63646;49.110;9.140;2023-02-11T18:06:22;3.80;;;2.58;;
75064;SDS011;63646;49.110;9.140;2023-02-11T18:08:48;4.15;;;2.65;;
75064;SDS011;63646;49.110;9.140;2023-02-11T18:11:17;3.15;;;2.70;;
75064;SDS011;63646;49.110;9.140;2023-02-11T18:13:43;4.30;;;2.70;;
75064;SDS011;63646;49.110;9.140;2023-02-11T18:16:09;3.38;;;2.65;;
75064;SDS011;63646;49.110;9.140;2023-02-11T18:18:40;3.63;;;2.70;;
75064;SDS011;63646;49.110;9.140;2023-02-11T18:23:34;3.22;;;2.47;;
75064;SDS011;63646;49.110;9.140;2023-02-11T18:26:00;4.40;;;2.70;;
75064;SDS011;63646;49.110;9.140;2023-02-11T18:30:55;5.10;;;2.95;;
75064;SDS011;63646;49.110;9.140;2023-02-11T18:33:22;4.95;;;3.03;;
75064;SDS011;63646;49.110;9.140;2023-02-11T18:35:50;6.53;;;2.75;;
75064;SDS011;63646;49.110;9.140;2023-02-11T18:38:16;12.65;;;6.10;;
75064;SDS011;63646;49.110;9.140;2023-02-11T18:40:42;19.55;;;10.55;;
75064;SDS011;63646;49.110;9.140;2023-02-11T18:43:11;18.52;;;10.88;;
75064;SDS011;63646;49.110;9.140;2023-02-11T18:45:41;11.93;;;7.45;;
75064;SDS011;63646;49.110;9.140;2023-02-11T18:48:13;9.45;;;6.60;;
75064;SDS011;63646;49.110;9.140;2023-02-11T18:50:41;11.50;;;6.28;;
75064;SDS011;63646;49.110;9.140;2023-02-11T18:53:08;8.38;;;5.43;;
75064;SDS011;63646;49.110;9.140;2023-02-11T18:55:36;7.93;;;5.10;;
75064;SDS011;63646;49.110;9.140;2023-02-11T18:58:02;7.50;;;4.70;;
75064;SDS011;63646;49.110;9.140;2023-02-11T19:00:28;7.78;;;4.50;;
75064;SDS011;63646;49.110;9.140;2023-02-11T19:05:21;10.52;;;4.97;;
75064;SDS011;63646;49.110;9.140;2023-02-11T19:07:46;6.78;;;4.40;;
75064;SDS011;63646;49.110;9.140;2023-02-11T19:10:11;9.20;;;4.63;;
75064;SDS011;63646;49.110;9.140;2023-02-11T19:12:37;6.70;;;4.07;;
75064;SDS011;63646;49.110;9.140;2023-02-11T19:15:04;6.97;;;4.40;;
75064;SDS011;63646;49.110;9.140;2023-02-11T19:17:33;6.20;;;4.07;;
75064;SDS011;63646;49.110;9.140;2023-02-11T19:19:58;7.65;;;3.72;;
75064;SDS011;63646;49.110;9.140;2023-02-11T19:22:24;9.07;;;3.97;;
75064;SDS011;63646;49.110;9.140;2023-02-11T19:24:49;5.57;;;3.67;;
75064;SDS011;63646;49.110;9.140;2023-02-11T19:27:15;5.70;;;3.60;;
75064;SDS011;63646;49.110;9.140;2023-02-11T19:29:40;6.47;;;3.65;;
75064;SDS011;63646;49.110;9.140;2023-02-11T19:32:06;6.43;;;3.63;;
75064;SDS011;63646;49.110;9.140;2023-02-11T19:34:31;6.32;;;3.22;;
75064;SDS011;63646;49.110;9.140;2023-02-11T19:36:58;6.03;;;3.88;;
75064;SDS011;63646;49.110;9.140;2023-02-11T19:39:25;4.15;;;3.25;;
75064;SDS011;63646;49.110;9.140;2023-02-11T19:41:51;6.35;;;3.17;;
75064;SDS011;63646;49.110;9.140;2023-02-11T19:44:16;4.47;;;3.42;;
75064;SDS011;63646;49.110;9.140;2023-02-11T19:46:42;5.85;;;3.90;;
75064;SDS011;63646;49.110;9.140;2023-02-11T19:49:09;4.60;;;3.35;;
75064;SDS011;63646;49.110;9.140;2023-02-11T19:51:38;4.47;;;3.50;;
75064;SDS011;63646;49.110;9.140;2023-02-11T19:54:04;3.88;;;3.22;;
75064;SDS011;63646;49.110;9.140;2023-02-11T19:56:30;5.47;;;3.40;;
75064;SDS011;63646;49.110;9.140;2023-02-11T19:58:56;6.78;;;3.35;;
75064;SDS011;63646;49.110;9.140;2023-02-11T20:01:22;4.53;;;3.08;;
75064;SDS011;63646;49.110;9.140;2023-02-11T20:03:49;4.70;;;3.30;;
75064;SDS011;63646;49.110;9.140;2023-02-11T20:06:21;5.38;;;3.33;;
75064;SDS011;63646;49.110;9.140;2023-02-11T20:08:53;3.63;;;3.20;;
75064;SDS011;63646;49.110;9.140;2023-02-11T20:11:20;4.05;;;3.13;;
75064;SDS011;63646;49.110;9.140;2023-02-11T20:13:46;4.20;;;3.08;;
75064;SDS011;63646;49.110;9.140;2023-02-11T20:16:13;5.25;;;3.40;;
75064;SDS011;63646;49.110;9.140;2023-02-11T20:18:41;6.60;;;3.88;;
75064;SDS011;63646;49.110;9.140;2023-02-11T20:21:08;6.03;;;3.10;;
75064;SDS011;63646;49.110;9.140;2023-02-11T20:23:41;4.53;;;3.28;;
75064;SDS011;63646;49.110;9.140;2023-02-11T20:26:19;7.97;;;3.58;;
75064;SDS011;63646;49.110;9.140;2023-02-11T20:28:46;3.75;;;3.03;;
75064;SDS011;63646;49.110;9.140;2023-02-11T20:31:13;4.30;;;3.25;;
75064;SDS011;63646;49.110;9.140;2023-02-11T20:33:39;6.63;;;3.03;;
75064;SDS011;63646;49.110;9.140;2023-02-11T20:36:07;3.22;;;2.80;;
75064;SDS011;63646;49.110;9.140;2023-02-11T20:38:37;6.20;;;3.08;;
75064;SDS011;63646;49.110;9.140;2023-02-11T20:41:04;4.20;;;2.75;;
75064;SDS011;63646;49.110;9.140;2023-02-11T20:43:34;6.95;;;3.53;;
75064;SDS011;63646;49.110;9.140;2023-02-11T20:46:04;5.93;;;3.20;;
75064;SDS011;63646;49.110;9.140;2023-02-11T20:48:31;4.45;;;2.85;;
75064;SDS011;63646;49.110;9.140;2023-02-11T20:51:04;4.00;;;2.90;;
75064;SDS011;63646;49.110;9.140;2023-02-11T20:53:33;3.53;;;3.00;;
75064;SDS011;63646;49.110;9.140;2023-02-11T20:56:04;5.00;;;3.15;;
75064;SDS011;63646;49.110;9.140;2023-02-11T20:58:31;5.03;;;2.63;;
75064;SDS011;63646;49.110;9.140;2023-02-11T21:01:05;5.10;;;3.00;;
75064;SDS011;63646;49.110;9.140;2023-02-11T21:03:59;3.38;;;3.00;;
75064;SDS011;63646;49.110;9.140;2023-02-11T21:06:34;4.53;;;2.95;;
75064;SDS011;63646;49.110;9.140;2023-02-11T21:09:03;3.63;;;3.00;;
75064;SDS011;63646;49.110;9.140;2023-02-11T21:11:29;3.50;;;2.47;;
75064;SDS011;63646;49.110;9.140;2023-02-11T21:13:55;5.68;;;2.92;;
75064;SDS011;63646;49.110;9.140;2023-02-11T21:16:21;5.05;;;3.03;;
75064;SDS011;63646;49.110;9.140;2023-02-11T21:18:49;4.88;;;2.97;;
75064;SDS011;63646;49.110;9.140;2023-02-11T21:21:15;4.25;;;3.10;;
75064;SDS011;63646;49.110;9.140;2023-02-11T21:23:44;3.78;;;2.80;;
75064;SDS011;63646;49.110;9.140;2023-02-11T21:26:09;3.13;;;2.83;;
75064;SDS011;63646;49.110;9.140;2023-02-11T21:28:39;4.03;;;2.90;;
75064;SDS011;63646;49.110;9.140;2023-02-11T21:31:05;3.15;;;2.70;;
75064;SDS011;63646;49.110;9.140;2023-02-11T21:33:30;2.92;;;2.63;;
75064;SDS011;63646;49.110;9.140;2023-02-11T21:36:00;4.20;;;2.83;;
75064;SDS011;63646;49.110;9.140;2023-02-11T21:38:27;4.25;;;2.70;;
75064;SDS011;63646;49.110;9.140;2023-02-11T21:40:53;6.47;;;2.90;;
75064;SDS011;63646;49.110;9.140;2023-02-11T21:43:19;3.60;;;2.75;;
75064;SDS011;63646;49.110;9.140;2023-02-11T21:45:46;4.72;;;3.00;;
75064;SDS011;63646;49.110;9.140;2023-02-11T21:48:13;4.30;;;2.88;;
75064;SDS011;63646;49.110;9.140;2023-02-11T21:50:44;3.20;;;2.90;;
75064;SDS011;63646;49.110;9.140;2023-02-11T21:53:11;3.72;;;2.78;;
75064;SDS011;63646;49.110;9.140;2023-02-11T21:55:37;4.28;;;2.60;;
75064;SDS011;63646;49.110;9.140;2023-02-11T21:58:03;4.95;;;2.92;;
